Time;durP1;ratioP1;P1;durP2;ratioP2;P2;SDS_P1;SDS_P2;PMS_P1;PMS_P2;Temp;Humidity;BMP_temperature;BMP_pressure;BME280_temperature;BME280_humidity;BME280_pressure;Samples;Min_cycle;Max_cycle;Signal;HPM_P1;HPM_P2
2021/05/13 00:01:25;;;;;;;54.30;41.42;;;;;;;-150.07;42.61;56242.44;4983636;28;20034;-91
2021/05/13 00:03:54;;;;;;;53.60;37.85;;;;;;;-150.07;42.16;56459.75;4981349;28;20030;-82
2021/05/13 00:06:21;;;;;;;53.75;37.83;;;;;;;-150.07;41.46;56300.94;4994262;28;20034;-82
2021/05/13 00:08:55;;;;;;;58.35;39.78;;;;;;;-150.07;41.55;56236.16;4983730;28;20685;-82
2021/05/13 00:11:30;;;;;;;51.85;38.70;;;;;;;-150.07;42.54;56292.59;4993997;28;20034;-82
2021/05/13 00:13:57;;;;;;;50.65;37.90;;;;;;;-150.07;42.04;56188.09;4994442;28;20026;-82
2021/05/13 00:16:29;;;;;;;45.17;34.28;;;;;;;-150.07;40.95;56259.16;4993956;28;20065;-83
2021/05/13 00:18:58;;;;;;;46.47;33.90;;;;;;;-150.07;40.37;56259.16;4981242;28;20405;-83
2021/05/13 00:21:25;;;;;;;47.17;34.37;;;;;;;-150.07;40.20;56259.16;4993439;28;20046;-81
2021/05/13 00:23:52;;;;;;;46.95;33.65;;;;;;;-150.07;40.78;56280.03;4993918;28;20431;-82
2021/05/13 00:26:35;;;;;;;41.90;32.70;;;;;;;-150.07;40.72;56267.50;4975263;28;20482;-82
2021/05/13 00:29:09;;;;;;;45.85;30.30;;;;;;;-150.07;39.87;56206.91;4991428;28;20022;-82
2021/05/13 00:31:54;;;;;;;47.60;30.80;;;;;;;-150.07;39.25;56248.69;4974694;28;20022;-82
2021/05/13 00:34:21;;;;;;;43.22;29.48;;;;;;;-150.07;39.52;56231.97;4990622;28;20486;-80
2021/05/13 00:36:48;;;;;;;44.50;29.13;;;;;;;-150.07;38.24;56229.88;4994545;28;20026;-82
2021/05/13 00:39:14;;;;;;;41.38;27.67;;;;;;;-150.07;38.16;56200.63;4994428;28;20137;-82
2021/05/13 00:41:41;;;;;;;41.17;26.95;;;;;;;-150.07;38.83;56417.97;4994586;28;20060;-82
2021/05/13 00:44:08;;;;;;;41.30;29.75;;;;;;;-150.07;37.99;56250.78;4993875;28;20058;-81
2021/05/13 00:46:36;;;;;;;47.78;31.50;;;;;;;-150.07;37.88;56238.25;4993478;28;20038;-81
2021/05/13 00:49:15;;;;;;;45.72;33.97;;;;;;;-150.07;37.67;56250.78;4976139;28;20030;-79
2021/05/13 00:51:47;;;;;;;49.42;30.48;;;;;;;-150.07;37.89;56257.06;4980314;28;20081;-81
2021/05/13 00:54:17;;;;;;;34.03;27.13;;;;;;;-150.07;37.07;56242.44;4993642;28;20057;-78
2021/05/13 00:56:43;;;;;;;;;;;;;;;-150.07;37.06;56250.78;4993393;28;20081;-79
2021/05/13 00:59:12;;;;;;;35.83;25.92;;;;;;;-150.07;36.96;56231.97;4993308;28;20363;-77
2021/05/13 01:04:06;;;;;;;40.03;28.48;;;;;;;-150.07;37.44;56186.00;4992875;28;20120;-80
2021/05/13 01:06:35;;;;;;;41.22;24.98;;;;;;;-150.07;37.73;56248.69;4975623;28;20042;-79
2021/05/13 01:09:08;;;;;;;41.10;26.60;;;;;;;-150.07;38.08;56257.06;4993249;28;20030;-80
2021/05/13 01:11:37;;;;;;;40.92;28.17;;;;;;;-150.07;38.20;56246.59;4993081;28;20656;-80
2021/05/13 01:19:47;;;;;;;78.57;41.38;;;;;;;-150.07;38.37;56229.88;4992467;28;20034;-82
2021/05/13 01:22:16;;;;;;;56.03;35.92;;;;;;;-150.07;38.13;56200.63;4977295;28;20031;-85
2021/05/13 01:24:44;;;;;;;59.00;38.22;;;;;;;-150.07;38.53;56257.06;4996475;28;20040;-86
2021/05/13 01:27:11;;;;;;;62.38;40.20;;;;;;;-150.07;39.20;56202.72;4981835;28;20086;-85
2021/05/13 01:29:45;;;;;;;54.47;40.80;;;;;;;-150.07;39.53;56246.59;4979934;28;20520;-84
2021/05/13 01:32:14;;;;;;;60.45;39.15;;;;;;;-150.07;38.91;56229.88;5003151;28;20027;-85
2021/05/13 01:35:00;;;;;;;54.03;39.05;;;;;;;-150.07;39.64;56277.94;4992549;28;20044;-83
2021/05/13 01:37:27;;;;;;;59.97;40.55;;;;;;;-150.07;39.57;56497.38;4977367;28;20058;-85
2021/05/13 01:39:54;;;;;;;49.97;38.30;;;;;;;-150.07;39.44;56217.34;4958533;28;20556;-85
2021/05/13 01:42:21;;;;;;;74.75;41.17;;;;;;;-150.07;38.72;56238.25;4992538;28;20026;-85
2021/05/13 01:44:47;;;;;;;60.40;38.78;;;;;;;-150.07;38.44;56227.78;4976580;28;20030;-86
2021/05/13 01:47:14;;;;;;;82.78;42.35;;;;;;;-150.07;38.52;56238.25;4995059;28;20399;-85
2021/05/13 01:49:41;;;;;;;107.15;47.63;;;;;;;-150.07;38.57;56321.84;4972595;28;20022;-83
2021/05/13 01:52:08;;;;;;;67.95;43.60;;;;;;;-150.07;38.19;56257.06;4985083;28;20503;-80
2021/05/13 01:54:35;;;;;;;80.43;43.83;;;;;;;-150.07;38.40;56213.16;4971677;28;20015;-83
2021/05/13 01:57:05;;;;;;;61.22;39.90;;;;;;;-150.07;38.72;56215.25;4972110;28;20088;-83
2021/05/13 01:59:32;;;;;;;59.70;42.28;;;;;;;-150.07;38.75;56202.72;4991046;28;20559;-83
2021/05/13 02:01:59;;;;;;;63.28;45.95;;;;;;;-150.07;39.34;56259.16;4988368;28;20034;-83
2021/05/13 02:04:29;;;;;;;60.40;46.35;;;;;;;-150.07;39.78;56242.44;4990805;28;20046;-83
2021/05/13 02:06:56;;;;;;;71.15;51.75;;;;;;;-150.07;39.85;56240.34;4990629;28;20088;-82
2021/05/13 02:09:22;;;;;;;67.20;49.38;;;;;;;-150.07;40.21;56229.88;4986791;28;20030;-83
2021/05/13 02:11:49;;;;;;;64.63;48.00;;;;;;;-150.07;40.42;56200.63;4989891;28;20479;-84
2021/05/13 02:14:16;;;;;;;68.20;47.38;;;;;;;-150.07;40.52;56265.41;4989415;28;20038;-83
2021/05/13 02:16:43;;;;;;;60.55;48.10;;;;;;;-150.07;40.56;56225.72;4989216;28;20439;-83
2021/05/13 02:19:10;;;;;;;63.10;50.22;;;;;;;-150.07;41.36;56238.25;4986129;28;20400;-83
2021/05/13 02:21:37;;;;;;;70.00;54.42;;;;;;;-150.07;41.49;56273.78;4991241;28;20053;-84
2021/05/13 02:24:04;;;;;;;66.05;51.25;;;;;;;-150.07;41.46;56447.22;4993002;28;20034;-88
2021/05/13 02:26:31;;;;;;;65.38;52.38;;;;;;;-150.07;41.41;56470.22;4990915;28;20037;-89
2021/05/13 02:28:57;;;;;;;61.72;48.30;;;;;;;-150.07;41.31;56196.44;4992242;28;20025;-88
2021/05/13 02:31:24;;;;;;;62.38;48.10;;;;;;;-150.07;41.04;56229.88;4989953;28;20031;-86
2021/05/13 02:33:51;;;;;;;63.78;48.97;;;;;;;-150.07;40.87;56200.63;4989823;28;20026;-86
2021/05/13 02:36:18;;;;;;;62.35;49.05;;;;;;;-150.07;40.86;56514.09;4980741;28;20384;-87
2021/05/13 02:38:45;;;;;;;61.85;47.70;;;;;;;-150.07;41.08;56459.75;4992709;28;20030;-87
2021/05/13 02:41:12;;;;;;;60.00;46.80;;;;;;;-150.07;40.62;56259.16;4988721;28;20622;-87
2021/05/13 02:43:39;;;;;;;54.35;43.50;;;;;;;-150.07;40.59;56231.97;4990290;28;20031;-87
2021/05/13 02:46:08;;;;;;;55.33;44.80;;;;;;;-150.07;40.32;56275.88;4985032;28;20045;-88
2021/05/13 02:48:35;;;;;;;62.95;43.67;;;;;;;-150.07;40.34;56200.63;4975385;28;20022;-88
2021/05/13 02:51:01;;;;;;;67.43;49.00;;;;;;;-150.07;40.67;56453.50;4990995;28;20026;-89
2021/05/13 02:53:28;;;;;;;63.38;48.70;;;;;;;-150.07;40.75;56259.16;4974733;28;20106;-83
2021/05/13 02:55:55;;;;;;;67.70;52.30;;;;;;;-150.07;40.64;56236.16;4989954;28;20018;-85
2021/05/13 02:58:22;;;;;;;69.38;51.72;;;;;;;-150.07;40.34;56426.31;4986625;28;20085;-88
2021/05/13 03:01:25;;;;;;;72.25;50.30;;;;;;;-150.07;40.55;56194.38;4992083;28;20444;-86
2021/05/13 03:03:41;;;;;;;59.92;44.95;;;;;;;-150.07;40.00;56221.53;4984137;28;20026;-79
2021/05/13 03:06:08;;;;;;;56.60;43.92;;;;;;;-150.07;39.79;56234.06;4980345;28;20099;-78
2021/05/13 03:08:35;;;;;;;58.63;40.50;;;;;;;-150.07;39.55;56229.88;4986854;28;20498;-77
2021/05/13 03:11:02;;;;;;;55.80;42.28;;;;;;;-150.07;39.42;56259.16;4984299;28;20365;-78
2021/05/13 03:13:29;;;;;;;53.53;40.47;;;;;;;-150.07;39.56;56229.88;4983887;28;20025;-76
2021/05/13 03:15:56;;;;;;;54.85;38.25;;;;;;;-150.07;39.58;56246.59;4983239;28;20034;-77
2021/05/13 03:18:27;;;;;;;48.78;35.42;;;;;;;-150.07;38.60;56221.53;4982461;28;20035;-77
2021/05/13 03:21:03;;;;;;;54.50;34.78;;;;;;;-150.07;38.80;56250.78;4988928;28;20462;-77
2021/05/13 03:23:57;;;;;;;44.22;31.30;;;;;;;-150.07;39.19;56242.44;4989443;28;20030;-77
2021/05/13 03:26:26;;;;;;;42.53;33.60;;;;;;;-150.07;39.01;56227.78;4987264;28;20085;-78
2021/05/13 03:28:53;;;;;;;52.08;33.53;;;;;;;-150.07;39.39;56252.88;4989855;28;20073;-77
2021/05/13 03:31:20;;;;;;;39.45;29.70;;;;;;;-150.07;38.78;56244.50;4987139;28;20034;-77
2021/05/13 03:33:46;;;;;;;36.47;29.67;;;;;;;-150.07;39.21;56240.34;4988179;28;20022;-77
2021/05/13 03:36:13;;;;;;;37.53;27.63;;;;;;;-150.07;38.74;56453.50;4991183;28;20439;-77
2021/05/13 03:38:40;;;;;;;41.85;30.85;;;;;;;-150.07;38.33;56213.16;4985779;28;20030;-77
2021/05/13 03:41:07;;;;;;;45.28;28.42;;;;;;;-150.07;38.56;56150.47;4986877;28;20030;-77
2021/05/13 03:43:34;;;;;;;40.22;28.70;;;;;;;-150.07;38.11;56250.78;4975412;28;20095;-77
2021/05/13 03:46:01;;;;;;;39.13;27.48;;;;;;;-150.07;37.74;56204.81;4985810;28;20079;-77
2021/05/13 03:48:28;;;;;;;39.53;28.30;;;;;;;-150.07;37.95;56198.53;4987369;28;20488;-78
2021/05/13 03:50:55;;;;;;;40.42;29.60;;;;;;;-150.07;37.53;56200.63;4986003;28;20476;-84
2021/05/13 03:53:22;;;;;;;41.95;27.10;;;;;;;-150.07;37.07;56129.56;4990160;28;20483;-82
2021/05/13 03:55:51;;;;;;;39.60;26.65;;;;;;;-150.07;37.56;56229.88;4985094;28;20121;-82
2021/05/13 03:58:28;;;;;;;40.33;28.87;;;;;;;-150.07;37.25;56367.81;4994224;28;20719;-90
2021/05/13 04:03:22;;;;;;;48.78;31.73;;;;;;;-150.07;37.50;56200.63;5006269;28;20037;-90
2021/05/13 04:05:49;;;;;;;45.38;34.95;;;;;;;-150.07;37.14;56171.38;4992393;28;20046;-89
2021/05/13 04:08:16;;;;;;;66.18;32.30;;;;;;;-150.07;37.45;56127.50;5004845;28;20030;-92
2021/05/13 04:10:43;;;;;;;62.75;32.28;;;;;;;-150.07;37.27;56196.44;4982678;28;20066;-90
2021/05/13 04:13:13;;;;;;;52.45;35.20;;;;;;;-150.07;36.55;56238.25;4991962;28;20027;-90
2021/05/13 04:15:44;;;;;;;75.47;47.88;;;;;;;-150.07;36.60;56336.47;5006212;28;20058;-91
2021/05/13 04:18:11;;;;;;;80.25;43.38;;;;;;;-150.07;36.80;56229.88;4989323;28;20418;-89
2021/05/13 04:20:40;;;;;;;60.35;42.35;;;;;;;-150.07;37.00;56380.34;4995640;28;20476;-91
2021/05/13 04:23:09;;;;;;;61.08;40.70;;;;;;;-150.07;37.75;56321.84;4989668;28;21575;-89
2021/05/13 04:25:37;;;;;;;56.67;40.15;;;;;;;-150.07;37.63;56196.44;4991310;28;20034;-91
2021/05/13 04:28:04;;;;;;;57.88;37.80;;;;;;;-150.07;37.06;56376.16;4981514;28;20022;-90
2021/05/13 04:30:31;;;;;;;53.15;35.28;;;;;;;-150.07;37.49;56248.69;4981799;28;20034;-91
2021/05/13 04:32:58;;;;;;;46.55;30.90;;;;;;;-150.07;37.38;56290.50;4980947;28;20037;-91
2021/05/13 04:35:26;;;;;;;67.20;39.75;;;;;;;-150.07;36.70;56171.38;4981969;28;20033;-90
2021/05/13 04:37:53;;;;;;;56.95;35.88;;;;;;;-150.07;36.88;56225.72;4982418;28;20041;-91
2021/05/13 04:40:20;;;;;;;54.03;37.17;;;;;;;-150.07;37.50;56204.81;4997978;28;20042;-90
2021/05/13 04:42:47;;;;;;;52.55;39.60;;;;;;;-150.07;37.24;56183.91;4988152;28;20034;-91
2021/05/13 04:45:14;;;;;;;45.80;33.13;;;;;;;-150.07;37.30;56171.38;4981531;28;20426;-89
2021/05/13 04:50:11;;;;;;;43.10;26.73;;;;;;;-150.07;36.89;56142.13;4998697;28;20035;-89
2021/05/13 04:52:39;;;;;;;38.25;24.98;;;;;;;-150.07;36.68;56209.00;4998246;28;20031;-91
2021/05/13 04:55:08;;;;;;;32.42;24.67;;;;;;;-150.07;36.27;56183.91;4985066;28;20030;-90
2021/05/13 04:57:37;;;;;;;31.23;22.88;;;;;;;-150.07;36.75;56236.16;4981244;28;20080;-89
2021/05/13 05:00:08;;;;;;;38.53;24.77;;;;;;;-150.07;36.32;56167.19;4998565;28;20073;-88
2021/05/13 05:02:35;;;;;;;43.70;24.15;;;;;;;-150.07;36.86;56332.28;4981839;28;20053;-91
2021/05/13 05:05:03;;;;;;;36.95;24.15;;;;;;;-150.07;36.83;56204.81;4989555;28;20503;-90
2021/05/13 05:07:30;;;;;;;35.85;26.45;;;;;;;-150.07;36.94;56177.63;4988303;28;20038;-90
2021/05/13 05:09:57;;;;;;;37.47;23.75;;;;;;;-150.07;36.97;56148.38;4978353;28;20112;-91
2021/05/13 05:12:24;;;;;;;29.98;20.77;;;;;;;-150.07;37.18;56158.84;4995589;28;20034;-90
2021/05/13 05:14:51;;;;;;;33.00;20.50;;;;;;;-150.07;36.52;56319.75;4979375;28;20061;-90
2021/05/13 05:17:18;;;;;;;40.83;20.48;;;;;;;-150.07;36.37;56466.03;4978348;28;20393;-90
2021/05/13 05:19:45;;;;;;;37.30;22.85;;;;;;;-150.07;36.70;56192.28;4978606;28;20023;-91
2021/05/13 05:22:12;;;;;;;38.13;22.02;;;;;;;-150.07;36.83;56411.69;4979231;28;20031;-90
2021/05/13 05:24:39;;;;;;;35.13;21.83;;;;;;;-150.07;36.56;56152.56;4986323;28;20054;-88
2021/05/13 05:27:06;;;;;;;32.05;18.98;;;;;;;-150.07;36.66;56209.00;4993572;28;20079;-88
2021/05/13 05:29:33;;;;;;;39.47;22.40;;;;;;;-150.07;36.39;56137.94;4996415;28;20019;-89
2021/05/13 05:32:00;;;;;;;35.58;22.17;;;;;;;-150.07;36.30;56154.66;4996654;28;20031;-90
2021/05/13 05:34:26;;;;;;;25.00;17.58;;;;;;;-150.07;36.63;56388.72;4997238;28;20045;-88
2021/05/13 05:36:53;;;;;;;48.65;24.55;;;;;;;-150.07;37.10;56169.28;4992402;28;20039;-90
2021/05/13 05:39:20;;;;;;;38.50;23.40;;;;;;;-150.07;37.41;56426.31;4996904;28;20033;-89
2021/05/13 05:41:47;;;;;;;44.42;25.75;;;;;;;-150.07;38.19;56204.81;4995278;28;20011;-89
2021/05/13 05:44:14;;;;;;;40.65;25.48;;;;;;;-150.07;38.16;56254.97;4995392;28;20042;-89
2021/05/13 05:46:41;;;;;;;37.88;25.63;;;;;;;-150.07;38.20;56202.72;4994076;28;20055;-89
2021/05/13 05:49:08;;;;;;;41.80;23.40;;;;;;;-150.07;38.21;56206.91;4990527;28;20051;-90
2021/05/13 05:51:35;;;;;;;34.35;23.92;;;;;;;-150.07;38.60;56169.28;4976786;28;20034;-89
2021/05/13 05:54:02;;;;;;;32.47;21.08;;;;;;;-150.07;38.43;56137.94;4978228;28;20074;-91
2021/05/13 05:56:29;;;;;;;41.97;28.50;;;;;;;-150.07;38.06;56177.63;4974125;28;20027;-91
2021/05/13 05:58:55;;;;;;;50.70;35.70;;;;;;;-150.07;38.57;56209.00;4982629;28;20118;-92
2021/05/13 06:01:23;;;;;;;62.28;44.25;;;;;;;-150.07;38.63;56150.47;4975068;28;20027;-90
2021/05/13 06:03:49;;;;;;;60.15;39.13;;;;;;;-150.07;38.24;56432.59;4976862;28;20122;-90
2021/05/13 06:06:16;;;;;;;57.13;40.05;;;;;;;-150.07;38.71;56221.53;4996001;28;20035;-90
2021/05/13 06:08:44;;;;;;;62.97;38.85;;;;;;;-150.07;38.58;56236.16;4980055;28;20432;-91
2021/05/13 06:11:12;;;;;;;48.60;36.30;;;;;;;-150.07;39.31;56409.59;4984646;28;20030;-89
2021/05/13 06:13:38;;;;;;;52.17;38.55;;;;;;;-150.07;39.86;56125.41;4987297;28;20065;-89
2021/05/13 06:16:06;;;;;;;53.20;37.35;;;;;;;-150.07;40.61;56188.09;4988279;28;20084;-90
2021/05/13 06:18:33;;;;;;;50.58;36.90;;;;;;;-150.07;40.86;56200.63;4979792;28;20030;-91
2021/05/13 06:21:00;;;;;;;50.28;34.55;;;;;;;-150.07;41.59;56238.25;4979970;28;20026;-90
2021/05/13 06:23:26;;;;;;;38.72;29.50;;;;;;;-150.07;41.25;56231.97;4994261;28;20027;-92
2021/05/13 06:25:53;;;;;;;39.33;29.77;;;;;;;-150.07;40.87;56177.63;4996877;28;20062;-90
2021/05/13 06:28:20;;;;;;;43.65;26.80;;;;;;;-150.07;40.27;56175.56;4996109;28;20026;-90
2021/05/13 06:30:47;;;;;;;34.75;27.48;;;;;;;-150.07;40.95;56192.28;4982391;28;20095;-90
2021/05/13 06:33:15;;;;;;;37.58;25.50;;;;;;;-150.07;40.80;56229.88;4995901;28;20133;-90
2021/05/13 06:35:42;;;;;;;48.70;35.75;;;;;;;-150.07;40.58;56179.72;4982117;28;20434;-89
2021/05/13 06:38:09;;;;;;;44.95;34.90;;;;;;;-150.07;40.65;56188.09;4978853;28;20029;-91
2021/05/13 06:40:36;;;;;;;48.95;38.03;;;;;;;-150.07;40.35;56169.28;4979180;28;20030;-90
2021/05/13 06:43:03;;;;;;;51.08;35.63;;;;;;;-150.07;39.70;56196.44;4979997;28;20030;-91
2021/05/13 06:45:31;;;;;;;43.53;32.80;;;;;;;-150.07;39.42;56440.97;4980374;28;20030;-90
2021/05/13 06:47:57;;;;;;;47.42;30.58;;;;;;;-150.07;40.06;56430.50;4980537;28;20057;-91
2021/05/13 06:50:24;;;;;;;43.00;30.67;;;;;;;-150.07;39.35;56417.97;4990083;28;20504;-91
2021/05/13 06:52:51;;;;;;;31.58;27.20;;;;;;;-150.07;38.78;56179.72;4980085;28;20038;-91
2021/05/13 06:55:18;;;;;;;40.53;26.83;;;;;;;-150.07;38.37;56142.13;4979624;28;20038;-92
2021/05/13 06:57:45;;;;;;;44.10;27.13;;;;;;;-150.07;38.70;56137.94;4979706;28;20503;-91
2021/05/13 07:00:12;;;;;;;33.53;26.75;;;;;;;-150.07;38.32;56451.41;4979133;28;20027;-92
2021/05/13 07:02:39;;;;;;;37.88;26.38;;;;;;;-150.07;38.89;56204.81;4979798;28;20041;-92
2021/05/13 07:05:06;;;;;;;38.85;26.77;;;;;;;-150.07;38.85;56254.97;4984018;28;20057;-90
2021/05/13 07:07:35;;;;;;;35.92;24.17;;;;;;;-150.07;38.34;56186.00;4992615;28;20105;-90
2021/05/13 07:10:02;;;;;;;36.05;25.58;;;;;;;-150.07;38.01;56319.75;4981941;28;20030;-91
2021/05/13 07:12:28;;;;;;;41.90;25.52;;;;;;;-150.07;38.14;56204.81;4978875;28;20038;-89
2021/05/13 07:14:56;;;;;;;35.70;23.20;;;;;;;-150.07;37.93;56175.56;4979795;28;20022;-90
2021/05/13 07:17:23;;;;;;;38.65;23.30;;;;;;;-150.07;38.04;56363.63;4978690;28;20400;-90
2021/05/13 07:19:50;;;;;;;29.92;24.05;;;;;;;-150.07;37.88;56217.34;4994700;28;20117;-89
2021/05/13 07:22:18;;;;;;;33.17;23.83;;;;;;;-150.07;38.22;56150.47;4982181;28;20053;-89
2021/05/13 07:24:48;;;;;;;35.38;26.08;;;;;;;-150.07;38.04;56434.69;4971223;28;20038;-89
2021/05/13 07:27:15;;;;;;;43.55;24.42;;;;;;;-150.07;37.96;56123.31;4975817;28;20041;-88
2021/05/13 07:29:42;;;;;;;41.13;29.00;;;;;;;-150.07;38.65;56340.66;4976152;28;20473;-91
2021/05/13 07:32:09;;;;;;;38.03;29.55;;;;;;;-150.07;38.14;56361.53;4982435;28;20019;-90
2021/05/13 07:34:37;;;;;;;41.75;29.73;;;;;;;-150.07;38.29;56250.78;5007753;28;20034;-90
2021/05/13 07:37:06;;;;;;;42.10;31.05;;;;;;;-150.07;37.82;56175.56;5002588;28;20049;-89
2021/05/13 07:39:33;;;;;;;44.45;34.15;;;;;;;-150.07;38.70;56167.19;4988664;28;20027;-91
2021/05/13 07:42:00;;;;;;;57.83;35.72;;;;;;;-150.07;39.23;56300.94;4971031;28;20022;-89
2021/05/13 07:44:27;;;;;;;48.60;37.72;;;;;;;-150.07;39.42;56140.03;4977870;28;20030;-90
2021/05/13 07:46:58;;;;;;;70.38;39.85;;;;;;;-150.07;40.11;56252.88;4978120;28;20034;-91
2021/05/13 07:49:26;;;;;;;57.35;40.08;;;;;;;-150.07;40.06;56229.88;4978546;28;20542;-91
2021/05/13 07:51:53;;;;;;;60.00;43.15;;;;;;;-150.07;40.62;56204.81;4979646;28;20856;-90
2021/05/13 07:54:22;;;;;;;59.20;48.72;;;;;;;-150.07;41.00;56225.72;4988418;28;20026;-89
2021/05/13 07:56:49;;;;;;;57.65;44.67;;;;;;;-150.07;40.81;56209.00;4991340;28;20077;-92
2021/05/13 07:59:16;;;;;;;60.83;47.28;;;;;;;-150.07;41.60;56252.88;4995130;28;20387;-91
2021/05/13 08:01:42;;;;;;;62.83;49.15;;;;;;;-150.07;41.73;56250.78;4994452;28;20046;-90
2021/05/13 08:04:09;;;;;;;72.35;50.85;;;;;;;-150.07;42.29;56242.44;4994636;28;20492;-90
2021/05/13 08:06:36;;;;;;;69.60;51.95;;;;;;;-150.07;42.43;56196.44;4996131;28;20117;-91
2021/05/13 08:09:04;;;;;;;70.13;53.70;;;;;;;-150.07;42.15;56271.69;4998101;28;20113;-90
2021/05/13 08:11:31;;;;;;;69.05;51.70;;;;;;;-150.07;41.88;56154.66;4995288;28;20129;-90
2021/05/13 08:13:58;;;;;;;75.20;54.50;;;;;;;-150.07;42.09;56204.81;4974533;28;20038;-90
2021/05/13 08:16:25;;;;;;;85.28;57.85;;;;;;;-150.07;41.82;56351.09;4999517;28;20031;-90
2021/05/13 08:18:54;;;;;;;76.80;54.22;;;;;;;-150.07;42.18;56248.69;4985635;28;20365;-88
2021/05/13 08:21:21;;;;;;;73.18;53.47;;;;;;;-150.07;41.46;56254.97;4998933;28;20480;-87
2021/05/13 08:23:48;;;;;;;74.00;53.65;;;;;;;-150.07;41.22;56206.91;4998464;28;20034;-89
2021/05/13 08:26:15;;;;;;;74.00;52.35;;;;;;;-150.07;41.14;56505.75;4988883;28;20475;-90
2021/05/13 08:28:42;;;;;;;67.25;53.80;;;;;;;-150.07;41.19;56267.50;4983259;28;20049;-90
2021/05/13 08:31:09;;;;;;;74.38;51.47;;;;;;;-150.07;41.33;56188.09;4994660;28;20078;-90
2021/05/13 08:33:36;;;;;;;74.75;55.95;;;;;;;-150.07;41.52;56229.88;5002185;28;20049;-87
2021/05/13 08:36:03;;;;;;;75.55;57.55;;;;;;;-150.07;41.73;56129.56;4988360;28;20074;-91
2021/05/13 08:38:29;;;;;;;76.38;55.25;;;;;;;-150.07;41.97;56250.78;4982111;28;20031;-90
2021/05/13 08:40:58;;;;;;;63.30;47.42;;;;;;;-150.07;42.22;56221.53;4981632;28;20029;-89
2021/05/13 08:43:26;;;;;;;59.53;45.28;;;;;;;-150.07;42.63;56296.75;4986642;28;20022;-91
2021/05/13 08:45:56;;;;;;;62.80;46.55;;;;;;;-150.07;42.08;56263.31;4998209;28;20038;-91
2021/05/13 08:48:28;;;;;;;54.65;42.97;;;;;;;-150.07;42.59;56284.22;4985373;28;20026;-90
2021/05/13 08:50:56;;;;;;;57.38;41.08;;;;;;;-150.07;42.99;56267.50;4988423;28;20050;-90
2021/05/13 08:53:23;;;;;;;56.88;41.13;;;;;;;-150.07;43.09;56280.03;5009284;28;20022;-89
2021/05/13 08:55:50;;;;;;;66.22;43.35;;;;;;;-150.07;43.43;56424.25;5013651;28;20443;-90
2021/05/13 08:58:17;;;;;;;46.60;37.88;;;;;;;-150.07;43.03;56463.94;4978675;28;20035;-91
2021/05/13 09:00:55;;;;;;;49.90;37.65;;;;;;;-150.07;43.45;56259.16;4988391;28;20026;-90
2021/05/13 09:03:36;;;;;;;51.97;37.53;;;;;;;-150.07;43.58;56267.50;4987447;28;20193;-91
2021/05/13 09:06:07;;;;;;;41.28;33.85;;;;;;;-150.07;43.64;56257.06;4998273;28;20201;-90
2021/05/13 09:08:34;;;;;;;44.60;33.75;;;;;;;-150.07;43.70;56234.06;4998326;28;20026;-91
2021/05/13 09:11:19;;;;;;;42.13;31.85;;;;;;;-150.07;44.21;56509.94;5014600;28;20041;-91
2021/05/13 09:14:01;;;;;;;40.85;31.30;;;;;;;-150.07;44.01;56273.78;4963178;28;20027;-89
2021/05/13 09:16:37;;;;;;;43.08;28.67;;;;;;;-150.07;44.26;56261.22;4977924;28;20084;-92
2021/05/13 09:19:31;;;;;;;41.08;28.55;;;;;;;-150.07;44.76;56296.75;4978155;28;20030;-91
2021/05/13 09:22:07;;;;;;;34.33;25.00;;;;;;;-150.07;45.20;56296.75;4979996;28;20133;-91
2021/05/13 09:24:50;;;;;;;36.38;24.70;;;;;;;-150.07;45.02;56265.41;4982375;28;20034;-91
2021/05/13 09:27:30;;;;;;;31.65;25.42;;;;;;;-150.07;44.77;56252.88;4982297;28;20034;-89
2021/05/13 09:30:20;;;;;;;39.53;24.33;;;;;;;-150.07;44.91;56300.94;5001732;28;20125;-89
2021/05/13 09:32:51;;;;;;;35.75;22.63;;;;;;;-150.07;45.22;56238.25;4982265;28;20038;-86
2021/05/13 09:35:23;;;;;;;34.38;25.42;;;;;;;-150.07;45.76;56200.63;4999011;28;20022;-88
2021/05/13 09:37:58;;;;;;;36.05;24.60;;;;;;;-150.07;45.62;56252.88;4987227;28;20026;-89
2021/05/13 09:40:43;;;;;;;29.23;22.35;;;;;;;-150.07;45.84;56213.16;4984706;28;20030;-94
2021/05/13 09:43:21;;;;;;;37.75;19.88;;;;;;;-150.07;45.72;56209.00;4969389;28;20023;-93
2021/05/13 09:45:51;;;;;;;29.35;19.75;;;;;;;-150.07;46.29;56204.81;4985350;28;20042;-90
2021/05/13 09:48:46;;;;;;;24.90;18.40;;;;;;;-150.07;46.37;56150.47;4998678;28;20027;-91
2021/05/13 09:51:16;;;;;;;34.55;17.52;;;;;;;-150.07;46.44;56273.78;4975921;28;20046;-88
2021/05/13 09:53:46;;;;;;;21.13;15.45;;;;;;;-150.07;46.58;56231.97;4980015;28;20038;-92
2021/05/13 09:56:29;;;;;;;24.90;15.98;;;;;;;-150.07;46.73;56242.44;4974032;28;20104;-91
2021/05/13 09:58:58;;;;;;;23.45;15.68;;;;;;;-150.07;46.88;56186.00;4980434;28;20104;-92
2021/05/13 10:01:36;;;;;;;22.25;15.40;;;;;;;-150.07;46.41;56269.59;4986905;28;20045;-91
2021/05/13 10:04:06;;;;;;;24.95;14.75;;;;;;;-150.07;47.05;56165.09;4988318;28;20026;-90
2021/05/13 10:06:32;;;;;;;;;;;;;;;-150.07;46.83;56284.22;4992082;28;20510;-89
2021/05/13 10:08:59;;;;;;;26.33;16.75;;;;;;;-150.07;47.06;56426.31;5002389;28;20445;-90
2021/05/13 10:11:26;;;;;;;25.75;16.20;;;;;;;-150.07;47.23;56219.44;4998173;28;20034;-90
2021/05/13 10:13:56;;;;;;;24.55;14.55;;;;;;;-150.07;47.21;56543.38;4989695;28;20026;-91
2021/05/13 10:16:27;;;;;;;25.83;16.05;;;;;;;-150.07;47.18;56254.97;4985103;28;20026;-95
2021/05/13 10:19:01;;;;;;;24.02;14.88;;;;;;;-150.07;46.81;56275.88;4969162;28;20037;-93
2021/05/13 10:21:31;;;;;;;20.25;13.88;;;;;;;-150.07;46.64;56514.09;4988158;28;20034;-94
2021/05/13 10:23:58;;;;;;;20.33;13.20;;;;;;;-150.07;46.47;56213.16;4987610;28;20027;-92
2021/05/13 10:26:35;;;;;;;16.52;12.27;;;;;;;-150.07;46.38;56263.31;5001754;28;20030;-91
2021/05/13 10:29:23;;;;;;;31.85;14.82;;;;;;;-150.07;46.40;56275.88;4983313;28;20026;-89
2021/05/13 10:32:11;;;;;;;24.17;13.85;;;;;;;-150.07;46.23;56234.06;4995793;28;20038;-90
2021/05/13 10:34:42;;;;;;;27.55;14.23;;;;;;;-150.07;46.30;56296.75;4980025;28;20064;-90
2021/05/13 10:37:10;;;;;;;22.40;13.52;;;;;;;-150.07;46.47;56313.47;4995576;28;20130;-90
2021/05/13 10:39:37;;;;;;;20.13;12.73;;;;;;;-150.07;46.22;56286.31;5004589;28;20011;-86
2021/05/13 10:42:30;;;;;;;24.27;13.77;;;;;;;-150.07;46.60;56309.28;4983700;28;20023;-86
2021/05/13 10:44:58;;;;;;;22.35;12.77;;;;;;;-150.07;47.14;56254.97;4982403;28;20125;-89
2021/05/13 10:47:32;;;;;;;22.50;15.15;;;;;;;-150.07;48.10;56221.53;4980260;28;20030;-87
2021/05/13 10:49:58;;;;;;;26.50;14.93;;;;;;;-150.07;47.51;56401.25;4968145;28;20141;-87
2021/05/13 10:52:33;;;;;;;19.83;13.80;;;;;;;-150.07;47.29;56321.84;4975285;28;20030;-86
2021/05/13 10:55:00;;;;;;;17.35;12.45;;;;;;;-150.07;47.57;56528.72;4989804;28;20038;-86
2021/05/13 10:57:27;;;;;;;22.20;14.60;;;;;;;-150.07;46.59;56209.00;4982524;28;20026;-87
2021/05/13 11:00:09;;;;;;;23.80;14.60;;;;;;;-150.07;46.33;56277.94;4975908;28;20061;-87
2021/05/13 11:02:39;;;;;;;21.80;15.13;;;;;;;-150.07;46.62;56282.13;4974832;28;20470;-87
2021/05/13 11:05:24;;;;;;;18.95;11.45;;;;;;;-150.07;46.07;56298.84;4979229;28;20046;-88
2021/05/13 11:07:51;;;;;;;27.25;14.52;;;;;;;-150.07;45.81;56271.69;4972872;28;20035;-87
2021/05/13 11:10:18;;;;;;;24.00;13.65;;;;;;;-150.07;46.88;56211.06;4972238;28;20035;-87
2021/05/13 11:12:45;;;;;;;20.20;11.50;;;;;;;-150.07;46.77;56578.91;4957300;28;20118;-86
2021/05/13 11:15:26;;;;;;;18.95;10.40;;;;;;;-150.07;45.67;56501.56;4965970;28;20034;-87
2021/05/13 11:18:01;;;;;;;23.20;9.75;;;;;;;-150.07;44.48;56311.38;4981209;28;20026;-86
2021/05/13 11:20:29;;;;;;;16.98;9.95;;;;;;;-150.07;44.37;56202.72;4972392;28;20043;-86
2021/05/13 11:23:05;;;;;;;15.77;8.40;;;;;;;-150.07;44.60;56300.94;4973507;28;20105;-87
2021/05/13 11:25:51;;;;;;;15.30;7.75;;;;;;;-150.07;45.41;56273.78;4986842;28;20043;-87